Time;durP1;ratioP1;P1;durP2;ratioP2;P2;SDS_P1;SDS_P2;PMS_P1;PMS_P2;Temp;Humidity;BMP_temperature;BMP_pressure;BME280_temperature;BME280_humidity;BME280_pressure;Samples;Min_cycle;Max_cycle;Signal;HPM_P1;HPM_P2
2022/11/29 04:02:28;;;;;;;1.98;1.40;;;16.00;50.20;;;;;;5235882;23;45118;-59
2022/11/29 04:05:10;;;;;;;1.60;1.40;;;16.00;50.30;;;;;;4908952;28;45281;-60
2022/11/29 04:08:13;;;;;;;2.35;1.83;;;16.00;50.20;;;;;;4896059;28;45794;-61
2022/11/29 04:11:15;;;;;;;2.67;1.73;;;16.00;50.30;;;;;;4920646;28;45375;-61
2022/11/29 04:14:06;;;;;;;2.20;1.70;;;16.00;50.30;;;;;;4891373;28;45570;-59
2022/11/29 04:17:19;;;;;;;1.50;1.38;;;16.00;50.30;;;;;;4893209;28;45508;-61
2022/11/29 04:19:59;;;;;;;1.85;1.70;;;16.00;50.40;;;;;;4784173;29;46855;-61
2022/11/29 04:22:53;;;;;;;1.48;1.38;;;15.90;50.30;;;;;;4901433;28;45156;-61
2022/11/29 04:25:58;;;;;;;1.77;1.60;;;15.90;50.30;;;;;;4908723;28;45367;-61
2022/11/29 04:28:41;;;;;;;1.80;1.40;;;15.90;50.30;;;;;;4868307;28;45153;-62
2022/11/29 04:31:32;;;;;;;2.15;1.40;;;15.90;50.30;;;;;;4876558;28;46028;-61
2022/11/29 04:33:57;;;;;;;1.92;1.67;;;15.90;50.40;;;;;;4910656;28;45488;-61
2022/11/29 04:37:00;;;;;;;1.50;1.23;;;15.90;50.30;;;;;;4890894;28;45030;-62
2022/11/29 04:39:37;;;;;;;1.98;1.50;;;15.90;50.40;;;;;;4899768;28;45551;-62
2022/11/29 04:42:31;;;;;;;1.80;1.45;;;15.90;50.40;;;;;;4899539;28;46596;-61
2022/11/29 04:45:15;;;;;;;1.40;1.30;;;15.90;50.50;;;;;;4858145;28;45530;-60
2022/11/29 04:47:50;;;;;;;1.67;1.58;;;15.90;50.40;;;;;;4905054;28;45285;-61
2022/11/29 04:50:25;;;;;;;2.15;1.63;;;15.90;50.40;;;;;;4888711;28;45272;-60
2022/11/29 04:53:20;;;;;;;2.00;1.60;;;15.80;50.30;;;;;;4893027;28;46356;-62
2022/11/29 04:55:53;;;;;;;1.40;1.27;;;15.80;50.40;;;;;;4888566;28;45339;-62
2022/11/29 04:58:39;;;;;;;2.55;1.58;;;15.80;50.30;;;;;;4893795;28;45417;-62
2022/11/29 05:01:31;;;;;;;1.83;1.40;;;15.80;50.40;;;;;;4872378;28;46353;-60
2022/11/29 05:04:08;;;;;;;1.63;1.52;;;15.80;50.40;;;;;;4905745;28;45639;-61
2022/11/29 05:06:37;;;;;;;1.92;1.55;;;15.80;50.40;;;;;;4892088;28;45532;-62
2022/11/29 05:09:34;;;;;;;2.38;1.70;;;15.80;50.30;;;;;;4895612;28;45026;-61
2022/11/29 05:12:23;;;;;;;1.63;1.50;;;15.80;50.40;;;;;;4878946;28;45567;-61
2022/11/29 05:15:25;;;;;;;1.73;1.50;;;15.80;50.40;;;;;;4891435;28;45309;-62
2022/11/29 05:18:21;;;;;;;1.83;1.60;;;15.80;50.50;;;;;;4874156;28;45144;-61
2022/11/29 05:21:09;;;;;;;1.88;1.50;;;15.80;50.40;;;;;;4910852;28;45210;-62
2022/11/29 05:23:43;;;;;;;2.15;1.85;;;15.80;50.60;;;;;;4891413;28;45138;-61
2022/11/29 05:26:16;;;;;;;1.83;1.70;;;15.70;50.40;;;;;;4893336;28;45477;-62
2022/11/29 05:28:52;;;;;;;2.00;1.80;;;15.70;50.40;;;;;;4894105;28;45237;-62
2022/11/29 05:31:24;;;;;;;1.45;1.35;;;15.70;50.40;;;;;;4895262;28;45466;-62
2022/11/29 05:33:55;;;;;;;1.67;1.57;;;15.70;50.40;;;;;;4910364;28;45525;-62
2022/11/29 05:36:42;;;;;;;1.63;1.38;;;15.70;50.40;;;;;;4910793;28;46382;-62
2022/11/29 05:39:31;;;;;;;1.58;1.48;;;15.70;50.40;;;;;;4865905;28;45086;-61
2022/11/29 05:42:24;;;;;;;1.50;1.40;;;15.70;50.40;;;;;;4897450;28;45541;-60
2022/11/29 05:45:10;;;;;;;1.63;1.50;;;15.70;50.50;;;;;;4895472;28;45019;-60
2022/11/29 05:47:53;;;;;;;1.40;1.15;;;15.70;50.40;;;;;;4896516;28;45683;-61
2022/11/29 05:50:27;;;;;;;1.50;1.40;;;15.70;50.50;;;;;;4893777;28;45064;-61
2022/11/29 05:52:57;;;;;;;1.80;1.60;;;15.70;50.50;;;;;;4883397;28;45588;-61
2022/11/29 05:55:48;;;;;;;1.50;1.30;;;15.60;50.40;;;;;;4881077;28;45617;-61
2022/11/29 05:58:37;;;;;;;1.77;1.52;;;15.60;50.50;;;;;;4898406;28;45749;-62
2022/11/29 06:01:18;;;;;;;1.63;1.45;;;15.70;50.50;;;;;;4897708;28;44940;-61
2022/11/29 06:04:10;;;;;;;1.65;1.30;;;15.70;50.50;;;;;;4860973;28;45236;-60
2022/11/29 06:06:43;;;;;;;1.58;1.33;;;15.70;50.60;;;;;;4877928;28;45156;-61
2022/11/29 06:09:29;;;;;;;2.15;1.70;;;15.60;50.50;;;;;;4891327;28;47197;-61
2022/11/29 06:12:01;;;;;;;2.20;1.80;;;15.60;50.50;;;;;;4879757;28;45641;-61
2022/11/29 06:14:45;;;;;;;1.65;1.50;;;15.60;50.50;;;;;;4874094;28;46565;-61
2022/11/29 06:17:32;;;;;;;2.30;1.63;;;15.60;50.60;;;;;;4891347;28;45943;-61
2022/11/29 06:20:29;;;;;;;1.48;1.27;;;15.60;50.60;;;;;;4897867;28;46898;-61
2022/11/29 06:23:19;;;;;;;1.77;1.67;;;15.60;50.60;;;;;;4903332;28;45531;-60
2022/11/29 06:26:11;;;;;;;1.30;1.20;;;15.60;50.50;;;;;;4890350;28;45203;-60
2022/11/29 06:28:52;;;;;;;1.33;1.23;;;15.60;50.60;;;;;;4879912;28;45632;-61
2022/11/29 06:31:25;;;;;;;1.48;1.38;;;15.60;51.20;;;;;;4903931;28;45249;-62
2022/11/29 06:33:55;;;;;;;1.83;1.63;;;15.50;50.50;;;;;;4889982;28;45570;-61
2022/11/29 06:36:49;;;;;;;1.40;1.30;;;15.50;50.50;;;;;;4895113;28;44909;-61
2022/11/29 06:39:15;;;;;;;1.45;1.35;;;15.60;50.50;;;;;;4893899;28;44881;-59
2022/11/29 06:41:40;;;;;;;1.60;1.30;;;15.60;50.30;;;;;;4878845;28;45303;-60
2022/11/29 06:44:06;;;;;;;1.80;1.38;;;15.80;50.20;;;;;;4893521;28;45155;-61
2022/11/29 06:46:44;;;;;;;1.75;1.20;;;15.90;49.90;;;;;;4898225;28;45061;-61
2022/11/29 06:49:38;;;;;;;1.45;1.35;;;16.10;49.80;;;;;;4877980;28;45647;-61
2022/11/29 06:52:30;;;;;;;1.85;1.33;;;16.30;49.50;;;;;;4894801;28;45339;-61
2022/11/29 06:55:06;;;;;;;1.23;1.13;;;16.50;49.30;;;;;;4880159;28;45367;-60
2022/11/29 06:57:50;;;;;;;1.17;1.00;;;16.60;49.10;;;;;;4879740;28;45298;-61
2022/11/29 07:00:26;;;;;;;1.40;1.30;;;16.70;48.90;;;;;;4908695;28;46198;-60
2022/11/29 07:03:19;;;;;;;1.35;1.17;;;16.90;48.80;;;;;;4878596;28;46554;-61
2022/11/29 07:05:45;;;;;;;1.33;1.23;;;17.00;48.50;;;;;;4895432;28;45582;-61
2022/11/29 07:08:17;;;;;;;1.20;1.10;;;17.20;48.50;;;;;;4881072;28;45653;-61
2022/11/29 07:10:43;;;;;;;2.05;1.40;;;17.30;48.30;;;;;;4911634;28;45029;-61
2022/11/29 07:13:12;;;;;;;1.10;1.00;;;17.40;48.30;;;;;;4893125;28;45613;-61
2022/11/29 07:15:54;;;;;;;1.83;1.40;;;17.50;48.10;;;;;;4892074;28;45217;-60
2022/11/29 07:18:28;;;;;;;1.15;1.05;;;17.60;47.90;;;;;;4880826;28;45764;-60
2022/11/29 07:21:05;;;;;;;1.75;1.30;;;17.80;47.80;;;;;;4890338;28;45322;-61
2022/11/29 07:23:35;;;;;;;1.20;1.05;;;17.90;47.70;;;;;;4882569;28;46566;-62
2022/11/29 07:26:25;;;;;;;2.85;1.40;;;18.00;47.60;;;;;;4894460;28;45130;-62
2022/11/29 07:29:02;;;;;;;1.65;1.10;;;18.00;47.60;;;;;;4877520;28;45596;-58
2022/11/29 07:31:52;;;;;;;1.30;1.20;;;18.10;47.50;;;;;;4888755;28;45285;-60
2022/11/29 07:34:21;;;;;;;1.70;1.55;;;18.10;47.50;;;;;;4892400;28;46432;-58
2022/11/29 07:37:15;;;;;;;1.33;1.10;;;18.30;47.40;;;;;;4892220;28;45590;-60
2022/11/29 07:39:40;;;;;;;;;;;18.50;47.20;;;;;;4909101;28;45233;-61
2022/11/29 07:42:23;;;;;;;1.60;1.25;;;18.60;46.90;;;;;;4909194;28;45382;-59
2022/11/29 07:45:16;;;;;;;1.20;1.05;;;18.80;46.80;;;;;;4876727;28;46234;-57
2022/11/29 07:47:42;;;;;;;1.30;1.00;;;18.90;46.50;;;;;;4878746;28;45214;-60
2022/11/29 07:50:08;;;;;;;1.08;0.95;;;19.10;46.60;;;;;;4911863;28;45253;-60
2022/11/29 07:52:34;;;;;;;0.95;0.93;;;19.20;46.40;;;;;;4908562;28;45276;-59
2022/11/29 07:55:00;;;;;;;1.20;1.10;;;19.40;46.30;;;;;;4894033;28;45537;-59
2022/11/29 07:57:26;;;;;;;1.75;1.20;;;19.50;46.20;;;;;;4884235;28;45336;-58
2022/11/29 07:59:51;;;;;;;1.27;1.10;;;19.60;46.10;;;;;;4909232;28;45516;-60
2022/11/29 08:02:27;;;;;;;1.10;1.00;;;19.80;45.90;;;;;;4910561;28;45193;-57
2022/11/29 08:04:53;;;;;;;3.67;1.27;;;19.90;45.70;;;;;;4880768;28;46837;-58
2022/11/29 08:07:28;;;;;;;1.67;1.23;;;20.00;45.70;;;;;;5081475;27;45525;-59
2022/11/29 08:09:54;;;;;;;1.05;0.95;;;20.10;45.60;;;;;;5050586;27;45529;-57
2022/11/29 08:12:19;;;;;;;1.20;1.10;;;20.30;45.50;;;;;;5052257;28;45367;-59
2022/11/29 08:14:45;;;;;;;1.02;1.02;;;20.40;45.40;;;;;;5057354;27;45358;-59
2022/11/29 08:17:11;;;;;;;1.25;1.02;;;20.50;45.30;;;;;;5041232;28;46522;-59
2022/11/29 08:19:36;;;;;;;1.17;1.08;;;20.60;45.10;;;;;;5046552;27;44624;-59
2022/11/29 08:22:02;;;;;;;0.93;0.90;;;20.70;45.00;;;;;;5060265;28;45176;-61
2022/11/29 08:24:27;;;;;;;1.00;0.90;;;20.90;45.00;;;;;;5060847;27;45157;-59
2022/11/29 08:26:53;;;;;;;1.00;0.93;;;20.90;44.80;;;;;;5046413;28;46377;-60
2022/11/29 08:29:18;;;;;;;2.50;0.95;;;21.00;44.70;;;;;;5051927;28;44982;-59
2022/11/29 08:31:44;;;;;;;0.98;0.80;;;21.20;44.60;;;;;;5042328;27;45334;-59
2022/11/29 08:34:10;;;;;;;1.10;1.00;;;21.30;44.50;;;;;;5045784;28;45640;-58
2022/11/29 08:36:36;;;;;;;2.05;0.90;;;21.40;44.40;;;;;;5045118;28;45431;-59
2022/11/29 08:39:02;;;;;;;1.20;1.10;;;21.50;44.40;;;;;;5060489;27;45473;-59
2022/11/29 08:41:28;;;;;;;1.13;1.00;;;21.60;44.30;;;;;;5041488;28;45391;-59
2022/11/29 08:43:53;;;;;;;0.98;0.88;;;21.70;44.10;;;;;;5060134;28;46331;-59
2022/11/29 08:46:19;;;;;;;1.23;1.08;;;21.80;44.10;;;;;;5058055;28;45157;-59
2022/11/29 08:48:45;;;;;;;1.35;1.20;;;21.90;43.90;;;;;;5043844;28;45416;-60
2022/11/29 08:51:11;;;;;;;1.38;0.75;;;22.00;43.80;;;;;;5055342;28;44768;-59
2022/11/29 08:53:45;;;;;;;1.40;1.15;;;22.00;43.80;;;;;;5041180;28;45203;-59
2022/11/29 08:56:17;;;;;;;1.10;0.90;;;22.10;43.60;;;;;;5046565;28;45898;-58
2022/11/29 08:58:44;;;;;;;0.77;0.77;;;22.10;43.40;;;;;;5060796;28;45561;-57
2022/11/29 09:01:14;;;;;;;2.75;0.98;;;22.10;43.40;;;;;;5028683;28;45469;-59
2022/11/29 09:03:58;;;;;;;1.10;1.00;;;22.10;43.50;;;;;;5013729;28;45342;-60
2022/11/29 09:06:24;;;;;;;1.13;1.02;;;22.00;43.70;;;;;;5051312;28;47510;-59
2022/11/29 09:08:50;;;;;;;1.38;1.08;;;22.00;43.80;;;;;;5043811;28;45542;-59
2022/11/29 09:11:18;;;;;;;1.40;1.25;;;22.00;43.90;;;;;;5063081;28;45292;-61
2022/11/29 09:13:45;;;;;;;3.53;1.00;;;22.10;43.80;;;;;;5059057;27;45139;-60
2022/11/29 09:16:12;;;;;;;4.05;1.13;;;22.20;43.70;;;;;;5056474;28;47181;-61
2022/11/29 09:18:38;;;;;;;2.05;1.10;;;22.30;43.50;;;;;;5024835;28;45062;-60
2022/11/29 09:21:08;;;;;;;1.00;0.90;;;22.40;43.50;;;;;;5032206;28;45020;-60
2022/11/29 09:23:34;;;;;;;1.10;0.90;;;22.50;43.40;;;;;;5030275;28;46224;-58
2022/11/29 09:26:00;;;;;;;1.08;0.98;;;22.50;43.30;;;;;;5024810;28;46272;-58
2022/11/29 09:28:26;;;;;;;1.13;1.00;;;22.60;43.40;;;;;;5046498;28;45353;-60
2022/11/29 09:30:51;;;;;;;2.95;0.95;;;22.60;43.20;;;;;;5047076;28;45138;-58
2022/11/29 09:33:17;;;;;;;1.13;0.90;;;22.70;43.20;;;;;;5031079;28;45569;-60
2022/11/29 09:35:43;;;;;;;1.05;0.85;;;22.80;43.10;;;;;;5050832;28;46293;-59
2022/11/29 09:38:12;;;;;;;0.60;0.60;;;22.80;43.00;;;;;;5039840;28;45500;-60
2022/11/29 09:41:00;;;;;;;0.80;0.80;;;22.90;42.90;;;;;;5048095;28;45518;-58
2022/11/29 09:43:42;;;;;;;1.23;1.10;;;23.00;42.90;;;;;;5038091;28;45398;-57
2022/11/29 09:46:14;;;;;;;2.88;0.82;;;23.00;42.60;;;;;;5048848;28;45263;-57
2022/11/29 09:48:58;;;;;;;1.38;0.93;;;23.10;42.80;;;;;;5051779;28;44650;-60
2022/11/29 09:51:59;;;;;;;1.42;0.98;;;23.20;42.70;;;;;;5041197;28;44968;-60
2022/11/29 09:54:32;;;;;;;1.23;0.90;;;23.20;42.30;;;;;;5040955;28;44973;-59
2022/11/29 09:56:57;;;;;;;1.02;0.73;;;23.30;42.60;;;;;;5043912;28;46558;-60
2022/11/29 09:59:56;;;;;;;0.77;0.77;;;23.30;42.50;;;;;;5042639;28;45491;-61
2022/11/29 10:02:44;;;;;;;0.93;0.88;;;23.50;42.00;;;;;;4984009;28;46521;-59
2022/11/29 10:05:23;;;;;;;0.73;0.70;;;23.50;42.00;;;;;;5042104;28;45570;-60
2022/11/29 10:07:50;;;;;;;0.70;0.70;;;23.60;42.30;;;;;;5011697;28;46403;-62
2022/11/29 10:10:28;;;;;;;2.28;1.00;;;23.60;42.30;;;;;;4987718;28;45893;-59
2022/11/29 10:12:55;;;;;;;0.90;0.80;;;23.70;42.00;;;;;;5000791;28;45158;-60
2022/11/29 10:15:26;;;;;;;1.95;0.93;;;23.70;42.20;;;;;;4975407;28;45520;-61
2022/11/29 10:18:00;;;;;;;2.67;0.85;;;23.80;42.10;;;;;;5001986;28;45373;-59
2022/11/29 10:20:31;;;;;;;1.27;0.73;;;23.80;41.90;;;;;;4987440;28;45029;-60
2022/11/29 10:23:30;;;;;;;3.72;1.25;;;23.90;42.10;;;;;;5011382;28;45473;-62
2022/11/29 10:25:56;;;;;;;1.08;0.50;;;23.90;41.60;;;;;;5008736;28;44956;-61
2022/11/29 10:28:30;;;;;;;3.42;0.80;;;24.00;42.00;;;;;;4989973;28;45704;-61
2022/11/29 10:31:01;;;;;;;1.00;0.85;;;24.00;41.80;;;;;;4992617;28;45571;-62
2022/11/29 10:33:33;;;;;;;0.65;0.60;;;24.10;41.90;;;;;;5010260;28;45290;-60
2022/11/29 10:36:01;;;;;;;1.77;0.98;;;24.10;41.80;;;;;;4989903;28;45199;-58
2022/11/29 10:38:26;;;;;;;0.90;0.80;;;24.10;41.80;;;;;;5008091;28;45922;-62
2022/11/29 10:41:05;;;;;;;1.17;0.80;;;24.20;41.80;;;;;;4995075;28;45435;-62
2022/11/29 10:43:30;;;;;;;0.95;0.75;;;24.20;41.40;;;;;;4990337;28;45233;-61
2022/11/29 10:45:57;;;;;;;3.00;0.70;;;24.20;41.70;;;;;;5007838;28;45223;-60
2022/11/29 10:48:25;;;;;;;0.60;0.60;;;24.30;41.70;;;;;;4991736;28;45462;-59
2022/11/29 10:50:51;;;;;;;1.00;0.90;;;24.30;41.60;;;;;;5007202;28;45178;-61
2022/11/29 10:53:29;;;;;;;1.42;0.75;;;24.40;41.60;;;;;;5002243;28;45289;-60
2022/11/29 10:55:59;;;;;;;1.48;0.70;;;24.40;41.60;;;;;;5012620;28;45490;-60
2022/11/29 10:58:29;;;;;;;0.75;0.75;;;24.40;41.50;;;;;;5008014;28;45460;-61
2022/11/29 11:01:05;;;;;;;2.63;0.65;;;24.40;41.50;;;;;;4982883;28;45144;-62
2022/11/29 11:03:40;;;;;;;1.10;0.80;;;24.40;41.20;;;;;;4996162;28;45178;-61
2022/11/29 11:06:08;;;;;;;0.90;0.77;;;24.40;41.30;;;;;;5016269;28;45528;-62
2022/11/29 11:08:34;;;;;;;1.65;0.80;;;24.40;41.50;;;;;;4996995;28;45675;-60
2022/11/29 11:10:59;;;;;;;1.23;0.70;;;24.40;41.50;;;;;;4994447;28;45138;-58
2022/11/29 11:13:27;;;;;;;0.85;0.77;;;24.40;41.60;;;;;;5013409;28;45379;-60
2022/11/29 11:16:16;;;;;;;1.17;0.95;;;24.30;41.60;;;;;;4991487;28;45300;-59
2022/11/29 11:18:42;;;;;;;1.45;0.68;;;24.30;41.30;;;;;;5032044;28;45437;-59
2022/11/29 11:21:10;;;;;;;1.58;1.10;;;24.20;41.70;;;;;;5013552;28;45190;-57
2022/11/29 11:23:38;;;;;;;0.77;0.70;;;24.20;41.60;;;;;;4988696;28;45175;-59
2022/11/29 11:26:09;;;;;;;0.98;0.88;;;24.20;41.60;;;;;;5007469;28;45198;-58
2022/11/29 11:28:46;;;;;;;3.40;0.85;;;24.20;41.60;;;;;;5009407;28;46491;-59
2022/11/29 11:31:12;;;;;;;1.65;1.10;;;24.20;41.50;;;;;;4996752;28;44778;-60
2022/11/29 11:33:44;;;;;;;0.65;0.60;;;24.20;41.70;;;;;;5005853;28;45281;-55
2022/11/29 11:36:20;;;;;;;0.73;0.73;;;24.20;41.50;;;;;;5008385;28;45280;-59
2022/11/29 11:38:50;;;;;;;0.70;0.70;;;24.30;41.60;;;;;;5010086;28;45280;-59
2022/11/29 11:41:15;;;;;;;0.70;0.70;;;24.30;41.60;;;;;;5023360;28;45122;-59
2022/11/29 11:43:47;;;;;;;1.45;1.05;;;24.30;41.50;;;;;;5023226;28;44734;-58
2022/11/29 11:46:12;;;;;;;0.70;0.70;;;24.40;41.60;;;;;;5011900;28;44775;-58
2022/11/29 11:48:39;;;;;;;0.70;0.68;;;24.40;41.50;;;;;;5013097;28;46772;-59
2022/11/29 11:51:07;;;;;;;0.80;0.80;;;24.40;41.50;;;;;;4993913;28;45469;-60
2022/11/29 11:53:35;;;;;;;1.83;0.80;;;24.40;41.40;;;;;;5011833;28;45647;-55
2022/11/29 11:56:03;;;;;;;0.95;0.70;;;24.50;41.90;;;;;;5009915;28;44990;-59
2022/11/29 11:58:35;;;;;;;0.65;0.65;;;24.50;41.30;;;;;;5010725;28;45729;-58
2022/11/29 12:01:24;;;;;;;0.80;0.73;;;24.50;41.20;;;;;;5007441;28;45417;-69
2022/11/29 12:04:10;;;;;;;0.63;0.63;;;24.60;41.20;;;;;;5008160;28;45685;-66
2022/11/29 12:06:51;;;;;;;0.85;0.70;;;24.50;41.00;;;;;;5028513;28;45788;-63
2022/11/29 12:10:00;;;;;;;1.77;0.68;;;24.50;41.00;;;;;;5010640;28;46339;-60
2022/11/29 12:12:26;;;;;;;0.52;0.52;;;24.50;41.10;;;;;;5010007;28;44683;-65
2022/11/29 12:15:01;;;;;;;1.33;0.77;;;24.50;41.40;;;;;;5015256;28;45234;-65
2022/11/29 12:17:43;;;;;;;;;;;24.50;41.30;;;;;;5012912;28;46248;-64
2022/11/29 12:20:28;;;;;;;;;;;24.60;40.90;;;;;;5012982;28;45592;-66
2022/11/29 12:22:53;;;;;;;;;;;24.50;41.00;;;;;;5005615;28;45587;-65
2022/11/29 12:25:25;;;;;;;;;;;24.50;41.00;;;;;;5008422;28;44723;-66
2022/11/29 12:27:50;;;;;;;;;;;24.50;41.10;;;;;;4992925;28;46651;-67
2022/11/29 12:30:16;;;;;;;;;;;24.50;41.10;;;;;;5013965;28;45277;-67
2022/11/29 12:32:48;;;;;;;;;;;24.50;41.10;;;;;;5024390;28;44709;-63
2022/11/29 12:35:26;;;;;;;;;;;24.50;41.10;;;;;;5007227;28;44803;-67
2022/11/29 12:38:01;;;;;;;;;;;24.50;41.20;;;;;;5022144;28;45250;-66
2022/11/29 12:40:31;;;;;;;;;;;24.50;41.20;;;;;;4995720;28;46627;-66
2022/11/29 12:42:57;;;;;;;;;;;24.50;41.20;;;;;;5016768;28;45254;-65
2022/11/29 12:45:31;;;;;;;;;;;24.50;41.30;;;;;;5023853;28;45218;-66
2022/11/29 12:48:03;;;;;;;;;;;24.50;41.30;;;;;;5029991;28;45357;-62
2022/11/29 12:50:29;;;;;;;;;;;24.50;41.30;;;;;;5005224;28;44983;-64
2022/11/29 12:52:58;;;;;;;;;;;24.50;41.30;;;;;;5025634;28;45568;-65
2022/11/29 12:55:25;;;;;;;;;;;24.50;41.70;;;;;;5012541;28;45551;-69
2022/11/29 12:57:50;;;;;;;;;;;24.50;41.30;;;;;;5019175;28;45340;-67
2022/11/29 13:00:19;;;;;;;;;;;24.60;41.40;;;;;;4996130;28;46677;-64
2022/11/29 13:02:48;;;;;;;;;;;24.60;41.30;;;;;;5025985;28;45205;-67
2022/11/29 13:05:32;;;;;;;;;;;24.60;41.30;;;;;;5012477;28;45258;-70
2022/11/29 13:08:02;;;;;;;;;;;24.60;41.40;;;;;;5030753;28;45150;-64
2022/11/29 13:10:51;;;;;;;0.60;0.60;;;24.60;41.40;;;;;;5020390;28;45818;-69
2022/11/29 13:13:31;;;;;;;0.63;0.63;;;24.60;41.40;;;;;;4997953;28;44804;-68
2022/11/29 13:16:20;;;;;;;0.70;0.70;;;24.70;41.50;;;;;;5000400;28;45579;-69
2022/11/29 13:19:03;;;;;;;1.02;0.75;;;24.70;41.50;;;;;;5004479;28;45174;-74
2022/11/29 13:21:36;;;;;;;0.98;0.70;;;24.70;41.50;;;;;;4973224;28;47067;-67
2022/11/29 13:24:29;;;;;;;0.60;0.60;;;24.70;41.50;;;;;;4997323;28;45640;-63
2022/11/29 13:26:55;;;;;;;;;;;24.70;41.40;;;;;;5009413;28;44969;-65
2022/11/29 13:29:20;;;;;;;0.60;0.60;;;24.70;41.40;;;;;;5003091;28;45345;-65
2022/11/29 13:31:46;;;;;;;0.80;0.80;;;24.70;41.60;;;;;;5008904;28;45985;-63
2022/11/29 13:34:21;;;;;;;0.52;0.52;;;24.70;41.70;;;;;;4992406;28;45124;-64
2022/11/29 13:36:54;;;;;;;0.60;0.60;;;24.70;41.50;;;;;;5027152;28;45213;-67
2022/11/29 13:39:35;;;;;;;0.60;0.60;;;24.70;41.60;;;;;;5012132;28;46128;-68
2022/11/29 13:42:12;;;;;;;0.60;0.52;;;24.70;41.70;;;;;;4989940;28;45695;-65
2022/11/29 13:44:50;;;;;;;0.82;0.70;;;24.70;41.60;;;;;;4992589;28;45505;-65
2022/11/29 13:47:16;;;;;;;0.60;0.60;;;24.70;41.50;;;;;;5009600;28;45355;-65
2022/11/29 13:50:01;;;;;;;1.15;0.80;;;24.70;41.70;;;;;;5025838;28;45307;-65
2022/11/29 13:52:43;;;;;;;0.80;0.80;;;24.70;41.60;;;;;;5030141;28;45570;-62
2022/11/29 13:55:13;;;;;;;0.80;0.80;;;24.70;41.70;;;;;;5008570;28;45239;-66
2022/11/29 13:57:57;;;;;;;0.95;0.73;;;24.70;41.70;;;;;;5011687;28;45302;-66
2022/11/29 14:01:16;;;;;;;0.55;0.52;;;24.70;41.60;;;;;;5034246;28;45533;-66
2022/11/29 14:03:43;;;;;;;0.82;0.60;;;24.80;41.60;;;;;;4932237;28;47199;-63
2022/11/29 14:06:11;;;;;;;0.95;0.68;;;24.80;41.80;;;;;;5013180;28;45384;-67
2022/11/29 14:08:45;;;;;;;0.65;0.65;;;24.80;41.70;;;;;;5015045;28;44938;-63
2022/11/29 14:11:13;;;;;;;1.00;0.65;;;24.80;41.70;;;;;;4991035;28;45294;-64
2022/11/29 14:14:01;;;;;;;0.65;0.60;;;24.80;41.80;;;;;;5030272;28;47487;-62
2022/11/29 14:16:36;;;;;;;0.60;0.55;;;24.80;41.50;;;;;;5013162;28;45508;-64
2022/11/29 14:19:22;;;;;;;1.17;0.70;;;24.80;41.60;;;;;;5032692;28;45236;-61
2022/11/29 14:22:05;;;;;;;0.70;0.70;;;24.80;41.50;;;;;;5017674;28;45233;-62
2022/11/29 14:24:31;;;;;;;0.50;0.50;;;24.90;41.60;;;;;;5008876;28;46118;-62
2022/11/29 14:27:36;;;;;;;0.52;0.52;;;24.80;41.70;;;;;;5025708;28;45092;-67
2022/11/29 14:30:01;;;;;;;0.90;0.77;;;24.90;41.50;;;;;;5030531;28;45323;-62
2022/11/29 14:32:39;;;;;;;0.80;0.77;;;24.90;41.70;;;;;;5013505;28;45123;-62
2022/11/29 14:35:10;;;;;;;1.20;0.63;;;24.90;41.70;;;;;;5022516;28;45906;-66
2022/11/29 14:37:43;;;;;;;1.02;0.80;;;24.90;41.70;;;;;;5005830;28;45539;-64
2022/11/29 14:40:33;;;;;;;0.57;0.57;;;24.90;41.70;;;;;;5010983;28;45257;-68
2022/11/29 14:43:00;;;;;;;1.15;0.50;;;24.90;41.60;;;;;;4989585;28;44829;-64
2022/11/29 14:45:29;;;;;;;0.85;0.60;;;24.90;41.80;;;;;;4993438;28;46048;-66
2022/11/29 14:47:55;;;;;;;0.57;0.57;;;24.80;41.80;;;;;;5009742;28;45248;-65
2022/11/29 14:50:50;;;;;;;;;;;24.90;41.80;;;;;;5007814;28;45418;-66
2022/11/29 14:53:29;;;;;;;;;;;24.80;41.60;;;;;;5009378;28;45626;-65
2022/11/29 14:56:14;;;;;;;;;;;24.80;41.60;;;;;;5010466;28;45813;-63
2022/11/29 14:58:40;;;;;;;;;;;24.80;41.70;;;;;;5031711;28;45123;-65
2022/11/29 15:01:05;;;;;;;;;;;24.80;41.70;;;;;;5012970;28;45352;-64
2022/11/29 15:03:32;;;;;;;;;;;24.80;41.60;;;;;;5045763;28;44869;-60
2022/11/29 15:06:17;;;;;;;;;;;24.80;41.70;;;;;;5000486;28;46777;-63
2022/11/29 15:08:53;;;;;;;;;;;24.80;41.70;;;;;;5052019;28;45056;-66
2022/11/29 15:11:23;;;;;;;;;;;24.80;41.70;;;;;;5048200;27;45295;-62
2022/11/29 15:14:06;;;;;;;;;;;24.80;41.70;;;;;;5045308;28;45180;-68
2022/11/29 15:16:37;;;;;;;;;;;24.80;41.80;;;;;;5049322;28;45395;-65
2022/11/29 15:19:03;;;;;;;;;;;24.80;41.80;;;;;;5043984;28;45060;-64
2022/11/29 15:21:34;;;;;;;;;;;24.80;41.80;;;;;;5043076;28;45192;-60
2022/11/29 15:24:09;;;;;;;;;;;24.80;41.80;;;;;;5049741;28;45127;-65
2022/11/29 15:26:35;;;;;;;;;;;24.80;41.80;;;;;;5062465;28;45293;-64
2022/11/29 15:29:13;;;;;;;;;;;24.80;41.80;;;;;;5048591;28;44692;-67
2022/11/29 15:31:39;;;;;;;;;;;24.80;41.80;;;;;;5049453;28;45269;-62
2022/11/29 15:34:05;;;;;;;;;;;24.80;41.80;;;;;;5050349;28;45236;-64
2022/11/29 15:36:30;;;;;;;;;;;24.80;41.80;;;;;;5049895;28;45470;-62
2022/11/29 15:38:58;;;;;;;;;;;24.80;41.90;;;;;;5049680;28;45304;-64
2022/11/29 15:41:30;;;;;;;;;;;24.80;41.90;;;;;;5039406;28;45335;-62
2022/11/29 15:44:00;;;;;;;;;;;24.80;41.90;;;;;;5035649;28;45176;-63
2022/11/29 15:46:26;;;;;;;;;;;24.80;41.90;;;;;;5049188;28;45213;-62
2022/11/29 15:48:52;;;;;;;;;;;24.80;41.90;;;;;;5049568;28;45200;-60
2022/11/29 15:51:24;;;;;;;;;;;24.80;41.90;;;;;;5046713;28;45517;-63
2022/11/29 15:53:52;;;;;;;;;;;24.80;41.90;;;;;;5049426;28;45641;-64
2022/11/29 15:56:19;;;;;;;;;;;24.80;42.00;;;;;;5045968;28;45402;-65
2022/11/29 15:58:45;;;;;;;;;;;24.80;42.00;;;;;;5046724;28;45093;-63
2022/11/29 16:01:13;;;;;;;;;;;24.80;42.00;;;;;;5033316;28;45326;-65
2022/11/29 16:03:38;;;;;;;;;;;24.80;42.00;;;;;;5012924;28;45748;-59
2022/11/29 16:06:24;;;;;;;;;;;24.80;42.00;;;;;;5044321;28;45370;-69
2022/11/29 16:08:49;;;;;;;;;;;24.80;42.00;;;;;;5046386;28;45053;-66
2022/11/29 16:11:16;;;;;;;;;;;24.80;41.90;;;;;;5054926;28;45068;-65
2022/11/29 16:13:42;;;;;;;;;;;24.80;42.00;;;;;;5034736;28;45019;-66
2022/11/29 16:16:18;;;;;;;;;;;24.80;42.00;;;;;;5046988;28;45508;-65
2022/11/29 16:18:44;;;;;;;;;;;24.80;42.00;;;;;;5047643;28;45422;-63
2022/11/29 16:21:25;;;;;;;;;;;24.80;42.00;;;;;;5042152;28;46271;-69
2022/11/29 16:23:50;;;;;;;;;;;24.80;42.00;;;;;;5043351;28;45121;-66
2022/11/29 16:26:25;;;;;;;;;;;24.80;42.00;;;;;;5048984;28;45383;-62
2022/11/29 16:28:51;;;;;;;;;;;24.80;42.00;;;;;;5057494;28;45008;-68
2022/11/29 16:31:17;;;;;;;;;;;24.80;42.00;;;;;;5056742;28;45403;-65
2022/11/29 16:33:42;;;;;;;;;;;24.80;42.00;;;;;;5053247;28;45585;-64
2022/11/29 16:36:29;;;;;;;;;;;24.80;42.00;;;;;;5050749;27;45265;-60
2022/11/29 16:39:06;;;;;;;;;;;24.60;42.00;;;;;;5054009;28;45373;-62
2022/11/29 16:41:32;;;;;;;;;;;24.50;42.20;;;;;;5044849;28;44922;-71
2022/11/29 16:43:58;;;;;;;;;;;24.40;42.50;;;;;;5052293;28;45233;-66
2022/11/29 16:46:26;;;;;;;;;;;24.30;42.70;;;;;;5047936;28;45480;-68
2022/11/29 16:48:52;;;;;;;;;;;24.20;42.80;;;;;;5052144;28;45288;-63
2022/11/29 16:51:22;;;;;;;;;;;24.10;43.10;;;;;;5039988;28;45513;-65
2022/11/29 16:53:50;;;;;;;;;;;24.00;43.20;;;;;;5051581;28;45559;-67
2022/11/29 16:56:22;;;;;;;;;;;23.90;43.20;;;;;;5056733;28;45547;-63
2022/11/29 16:58:54;;;;;;;;;;;23.80;43.30;;;;;;5055633;28;44991;-66
2022/11/29 17:01:22;;;;;;;;;;;23.70;43.50;;;;;;5032070;28;44776;-63
2022/11/29 17:03:47;;;;;;;;;;;23.60;43.60;;;;;;5047946;28;45474;-67
2022/11/29 17:06:14;;;;;;;;;;;23.60;43.80;;;;;;5039154;28;46850;-66
2022/11/29 17:08:39;;;;;;;;;;;23.50;43.90;;;;;;5047199;28;44994;-63
2022/11/29 17:11:05;;;;;;;;;;;23.40;44.00;;;;;;5051207;28;45393;-71
2022/11/29 17:13:30;;;;;;;;;;;23.30;44.10;;;;;;5051894;28;45513;-66
2022/11/29 17:15:56;;;;;;;;;;;23.30;44.20;;;;;;5044752;28;47070;-68
2022/11/29 17:18:21;;;;;;;;;;;23.20;44.40;;;;;;5048638;28;45222;-71
2022/11/29 17:20:47;;;;;;;;;;;23.10;44.40;;;;;;5027687;28;45301;-63
2022/11/29 17:23:12;;;;;;;;;;;23.10;44.60;;;;;;5044565;28;45405;-63
2022/11/29 17:25:38;;;;;;;;;;;23.00;44.70;;;;;;5044217;28;46722;-65
2022/11/29 17:28:04;;;;;;;;;;;22.90;44.80;;;;;;5040752;28;45703;-66
2022/11/29 17:30:30;;;;;;;;;;;22.80;44.80;;;;;;5041357;28;44976;-64
2022/11/29 17:32:56;;;;;;;;;;;22.70;44.90;;;;;;5042621;28;45520;-66
2022/11/29 17:35:21;;;;;;;;;;;22.70;45.00;;;;;;5046020;28;45821;-70
2022/11/29 17:37:47;;;;;;;;;;;22.60;45.10;;;;;;5041579;28;45421;-64
2022/11/29 17:40:14;;;;;;;;;;;22.60;45.20;;;;;;5045493;28;45189;-66
2022/11/29 17:42:39;;;;;;;;;;;22.50;45.40;;;;;;5051084;28;45272;-66
2022/11/29 17:45:05;;;;;;;;;;;22.40;45.50;;;;;;5048882;28;45547;-69
2022/11/29 17:47:31;;;;;;;;;;;22.30;45.60;;;;;;5049564;28;45912;-68
2022/11/29 17:49:57;;;;;;;;;;;22.30;45.60;;;;;;5049185;28;45358;-65
2022/11/29 17:52:23;;;;;;;;;;;22.20;45.70;;;;;;5053228;28;45534;-66